createdAt,value
2022-10-29T00:01:25.293Z,8.10
2022-10-29T00:03:53.039Z,8.70
2022-10-29T00:06:20.558Z,7.43
2022-10-29T00:08:49.494Z,8.00
2022-10-29T00:11:18.502Z,7.70
2022-10-29T00:13:46.848Z,7.33
2022-10-29T00:16:15.697Z,9.17
2022-10-29T00:18:43.499Z,8.40
2022-10-29T00:21:12.539Z,7.60
2022-10-29T00:23:40.191Z,8.67
2022-10-29T00:26:09.826Z,7.67
2022-10-29T00:28:37.628Z,7.27
2022-10-29T00:31:05.606Z,8.27
2022-10-29T00:33:36.247Z,8.37
2022-10-29T00:36:05.778Z,7.77
2022-10-29T00:38:34.575Z,7.80
2022-10-29T00:41:02.656Z,8.10
2022-10-29T00:43:34.941Z,8.33
2022-10-29T00:46:03.885Z,8.20
2022-10-29T00:48:32.751Z,8.40
2022-10-29T00:51:02.152Z,8.10
2022-10-29T00:53:31.711Z,9.07
2022-10-29T00:55:59.955Z,8.43
2022-10-29T00:58:28.536Z,9.07
2022-10-29T01:00:57.401Z,9.47
2022-10-29T01:03:24.928Z,8.87
2022-10-29T01:05:53.923Z,8.93
2022-10-29T01:08:21.668Z,7.30
2022-10-29T01:10:54.130Z,7.10
2022-10-29T01:13:28.844Z,7.80
2022-10-29T01:16:01.044Z,7.97
2022-10-29T01:18:33.775Z,8.73
2022-10-29T01:21:16.844Z,8.33
2022-10-29T01:23:59.647Z,8.10
2022-10-29T01:26:42.689Z,7.00
2022-10-29T01:29:17.855Z,7.70
2022-10-29T01:31:50.432Z,7.37
2022-10-29T01:34:20.457Z,7.30
2022-10-29T01:36:54.973Z,9.33
2022-10-29T01:39:28.240Z,8.30
2022-10-29T01:41:58.988Z,7.93
2022-10-29T01:44:31.004Z,10.30
2022-10-29T01:47:01.975Z,8.50
2022-10-29T01:49:42.804Z,7.50
2022-10-29T01:52:12.945Z,9.13
2022-10-29T01:54:42.107Z,9.47
2022-10-29T01:57:29.729Z,8.10
2022-10-29T01:59:58.920Z,8.60
2022-10-29T02:02:31.614Z,8.27
2022-10-29T02:05:04.303Z,7.83
2022-10-29T02:07:36.953Z,9.17
2022-10-29T02:10:08.317Z,9.10
2022-10-29T02:12:40.008Z,8.33
2022-10-29T02:15:09.895Z,7.87
2022-10-29T02:17:39.076Z,8.93
2022-10-29T02:20:08.283Z,8.47
2022-10-29T02:22:35.889Z,8.40
2022-10-29T02:25:04.431Z,8.60
2022-10-29T02:27:32.436Z,8.23
2022-10-29T02:30:00.567Z,8.50
2022-10-29T02:32:28.290Z,8.30
2022-10-29T02:34:57.202Z,8.80
2022-10-29T02:37:25.057Z,8.37
2022-10-29T02:39:53.306Z,8.47
2022-10-29T02:42:20.908Z,8.40
2022-10-29T02:44:48.855Z,8.70
2022-10-29T02:47:16.501Z,8.33
2022-10-29T02:49:44.240Z,7.80
2022-10-29T02:52:13.292Z,8.70
2022-10-29T02:54:41.170Z,8.07
2022-10-29T02:57:08.701Z,8.83
2022-10-29T02:59:36.871Z,9.43
2022-10-29T03:02:04.625Z,9.23
2022-10-29T03:04:32.437Z,8.80
2022-10-29T03:07:00.187Z,9.57
2022-10-29T03:09:29.180Z,8.80
2022-10-29T03:11:56.745Z,8.80
2022-10-29T03:14:24.363Z,8.40
2022-10-29T03:16:52.565Z,8.57
2022-10-29T03:19:20.045Z,8.90
2022-10-29T03:21:47.727Z,8.93
2022-10-29T03:24:15.258Z,9.03
2022-10-29T03:26:44.127Z,8.90
2022-10-29T03:29:12.000Z,9.63
2022-10-29T03:31:39.451Z,9.10
2022-10-29T03:34:07.148Z,10.27
2022-10-29T03:36:34.832Z,10.13
2022-10-29T03:39:02.586Z,9.60
2022-10-29T03:41:30.072Z,9.50
2022-10-29T03:43:59.298Z,9.30
2022-10-29T03:46:26.994Z,9.90
2022-10-29T03:48:55.055Z,9.53
2022-10-29T03:51:22.859Z,9.60
2022-10-29T03:53:50.317Z,9.93
2022-10-29T03:56:17.906Z,10.43
2022-10-29T03:58:45.984Z,9.37
2022-10-29T04:01:14.998Z,9.53
2022-10-29T04:03:43.980Z,10.20
2022-10-29T04:06:12.138Z,10.00
2022-10-29T04:08:39.712Z,10.00
2022-10-29T04:11:08.076Z,9.73
2022-10-29T04:13:36.381Z,10.20
2022-10-29T04:16:04.445Z,10.77
2022-10-29T04:18:33.811Z,9.83
2022-10-29T04:29:25.995Z,9.60
2022-10-29T04:31:54.064Z,9.60
2022-10-29T04:34:23.168Z,9.80
2022-10-29T04:36:52.452Z,10.53
2022-10-29T04:39:22.598Z,10.17
2022-10-29T04:41:51.549Z,10.27
2022-10-29T04:44:20.217Z,9.83
2022-10-29T04:46:47.833Z,9.83
2022-10-29T04:49:15.492Z,9.27
2022-10-29T04:51:45.054Z,10.50
2022-10-29T04:54:13.689Z,10.90
2022-10-29T04:56:41.286Z,9.50
2022-10-29T04:59:09.004Z,9.40
2022-10-29T05:04:09.213Z,9.60
2022-10-29T05:06:36.704Z,9.70
2022-10-29T05:09:06.016Z,10.37
2022-10-29T05:11:33.531Z,10.07
2022-10-29T05:14:01.516Z,9.40
2022-10-29T05:16:29.089Z,9.93
2022-10-29T05:18:56.627Z,9.97
2022-10-29T05:21:24.330Z,9.33
2022-10-29T05:23:52.057Z,10.10
2022-10-29T05:26:20.833Z,10.30
2022-10-29T05:28:50.298Z,9.80
2022-10-29T05:31:18.512Z,9.37
2022-10-29T05:33:46.331Z,9.67
2022-10-29T05:36:13.858Z,9.73
2022-10-29T05:38:41.690Z,10.50
2022-10-29T05:41:10.364Z,10.33
2022-10-29T05:43:39.282Z,9.77
2022-10-29T05:46:06.817Z,10.50
2022-10-29T05:48:34.361Z,10.30
2022-10-29T05:51:01.836Z,10.13
2022-10-29T05:53:29.667Z,10.73
2022-10-29T05:55:59.156Z,11.00
2022-10-29T05:58:26.925Z,11.40
2022-10-29T06:00:56.081Z,10.20
2022-10-29T06:03:24.013Z,9.93
2022-10-29T06:05:51.894Z,10.67
2022-10-29T06:08:19.637Z,10.50
2022-10-29T06:10:47.409Z,10.73
2022-10-29T06:13:16.086Z,11.13
2022-10-29T06:15:43.994Z,12.07
2022-10-29T06:18:13.025Z,10.67
2022-10-29T06:20:40.919Z,11.07
2022-10-29T06:23:08.512Z,11.47
2022-10-29T06:25:36.046Z,10.57
2022-10-29T06:28:04.526Z,11.20
2022-10-29T06:30:32.930Z,11.33
2022-10-29T06:33:00.729Z,10.60
2022-10-29T06:35:29.767Z,10.60
2022-10-29T06:37:57.772Z,11.40
2022-10-29T06:40:26.005Z,10.80
2022-10-29T06:42:59.634Z,11.60
2022-10-29T06:45:27.929Z,11.40
2022-10-29T06:47:55.600Z,11.80
2022-10-29T06:50:24.263Z,10.63
2022-10-29T06:52:57.124Z,9.93
2022-10-29T06:55:25.240Z,9.70
2022-10-29T06:58:00.047Z,10.30
2022-10-29T07:00:27.834Z,11.37
2022-10-29T07:02:55.854Z,11.20
2022-10-29T07:05:24.189Z,11.20
2022-10-29T07:07:55.770Z,10.30
2022-10-29T07:10:25.447Z,11.27
2022-10-29T07:12:53.034Z,10.37
2022-10-29T07:15:24.153Z,10.43
2022-10-29T07:17:56.253Z,10.50
2022-10-29T07:20:24.099Z,9.63
2022-10-29T07:22:52.061Z,11.23
2022-10-29T07:25:19.779Z,11.60
2022-10-29T07:27:48.729Z,11.50
2022-10-29T07:30:16.476Z,10.30
2022-10-29T07:32:43.912Z,10.30
2022-10-29T07:35:12.173Z,10.50
2022-10-29T07:37:41.415Z,10.10
2022-10-29T07:40:09.566Z,9.93
2022-10-29T07:42:37.164Z,10.57
2022-10-29T07:45:07.010Z,10.00
2022-10-29T07:47:34.561Z,10.10
2022-10-29T07:50:02.569Z,9.27
2022-10-29T07:52:30.697Z,9.50
2022-10-29T07:55:00.471Z,10.20
2022-10-29T07:57:30.318Z,9.77
2022-10-29T07:59:57.874Z,9.57
2022-10-29T08:02:27.132Z,8.67
2022-10-29T08:04:55.477Z,8.30
2022-10-29T08:07:23.113Z,8.63
2022-10-29T08:09:51.111Z,8.63
2022-10-29T08:12:19.018Z,8.80
2022-10-29T08:14:46.572Z,9.30
2022-10-29T08:17:14.118Z,8.60
2022-10-29T08:19:43.192Z,8.37
2022-10-29T08:22:10.687Z,8.97
2022-10-29T08:24:38.187Z,8.20
2022-10-29T08:27:06.193Z,9.07
2022-10-29T08:29:33.694Z,9.00
2022-10-29T08:32:01.538Z,9.07
2022-10-29T08:34:29.001Z,9.70
2022-10-29T08:36:58.068Z,8.60
2022-10-29T08:39:25.711Z,8.57
2022-10-29T08:41:59.933Z,10.13
2022-10-29T08:44:49.559Z,7.93
2022-10-29T08:47:20.518Z,9.53
2022-10-29T08:49:51.992Z,9.93
2022-10-29T08:52:24.666Z,8.63
2022-10-29T08:54:59.281Z,7.53
2022-10-29T08:57:27.905Z,8.17
2022-10-29T09:00:02.144Z,8.60
2022-10-29T09:02:31.030Z,9.40
2022-10-29T09:04:58.933Z,9.57
2022-10-29T09:07:34.485Z,10.77
2022-10-29T09:10:07.695Z,43.20
2022-10-29T09:12:42.018Z,44.37
2022-10-29T09:15:20.796Z,39.53
2022-10-29T09:17:55.483Z,20.03
2022-10-29T09:20:26.876Z,15.37
2022-10-29T09:23:04.674Z,17.30
2022-10-29T09:25:35.999Z,14.90
2022-10-29T09:28:12.453Z,33.13
2022-10-29T09:30:44.031Z,25.63
2022-10-29T09:33:14.543Z,8.20
2022-10-29T09:35:44.258Z,15.80
2022-10-29T09:38:17.253Z,11.17
2022-10-29T09:40:45.130Z,8.90
2022-10-29T09:43:20.086Z,9.27
2022-10-29T09:45:51.491Z,7.80
2022-10-29T09:48:24.929Z,8.63
2022-10-29T09:50:58.788Z,8.00
2022-10-29T09:53:27.822Z,6.80
2022-10-29T09:55:55.359Z,7.00
2022-10-29T09:58:24.167Z,7.77
2022-10-29T10:00:52.075Z,7.80
2022-10-29T10:03:21.553Z,8.00
2022-10-29T10:06:03.442Z,8.40
2022-10-29T10:08:32.825Z,8.40
2022-10-29T10:11:01.697Z,7.90
2022-10-29T10:13:30.157Z,8.50
2022-10-29T10:18:48.393Z,8.07
2022-10-29T10:21:25.308Z,7.77
2022-10-29T10:23:57.723Z,7.47
2022-10-29T10:26:29.589Z,6.80
2022-10-29T10:29:12.260Z,8.03
2022-10-29T10:31:39.956Z,8.30
2022-10-29T10:34:15.282Z,6.53
2022-10-29T10:36:44.187Z,7.97
2022-10-29T10:39:21.246Z,9.80
2022-10-29T10:41:50.323Z,11.73
2022-10-29T10:44:19.058Z,9.40
2022-10-29T10:46:46.806Z,7.70
2022-10-29T10:49:15.342Z,7.27
2022-10-29T10:51:44.309Z,9.77
2022-10-29T10:54:25.118Z,9.83
2022-10-29T10:56:53.490Z,6.87
2022-10-29T10:59:21.285Z,8.40
2022-10-29T11:01:52.120Z,78.43
2022-10-29T11:04:22.544Z,116.53
2022-10-29T11:06:51.876Z,28.97
2022-10-29T11:09:21.992Z,14.47
2022-10-29T11:11:58.001Z,9.10
2022-10-29T11:14:28.866Z,19.47
2022-10-29T11:16:57.918Z,15.77
2022-10-29T11:19:31.262Z,9.20
2022-10-29T11:22:05.260Z,10.63
2022-10-29T11:24:53.736Z,7.40
2022-10-29T11:27:30.384Z,8.83
2022-10-29T11:30:02.413Z,9.97
2022-10-29T11:32:34.277Z,9.10
2022-10-29T11:37:57.399Z,8.00
2022-10-29T11:40:31.442Z,15.83
2022-10-29T11:43:05.691Z,10.57
2022-10-29T11:45:41.120Z,15.07
2022-10-29T11:48:20.535Z,10.77
2022-10-29T11:50:53.456Z,7.60
2022-10-29T11:53:25.296Z,11.47
2022-10-29T11:55:57.639Z,12.33
2022-10-29T11:58:34.219Z,22.77
2022-10-29T12:01:08.849Z,19.50
2022-10-29T12:03:43.026Z,7.30
2022-10-29T12:06:15.692Z,7.23
2022-10-29T12:08:48.781Z,9.47
2022-10-29T12:11:20.933Z,11.50
2022-10-29T12:13:55.313Z,15.37
2022-10-29T12:16:28.634Z,10.00
2022-10-29T12:19:00.092Z,12.83
2022-10-29T12:21:32.894Z,11.70
2022-10-29T12:24:07.820Z,10.43
2022-10-29T12:26:38.757Z,8.90
2022-10-29T12:29:12.345Z,9.37
2022-10-29T12:31:45.281Z,11.60
2022-10-29T12:34:15.693Z,9.40
2022-10-29T12:36:49.803Z,8.17
2022-10-29T12:39:23.489Z,8.60
2022-10-29T12:41:52.620Z,10.43
2022-10-29T12:44:25.428Z,9.13
2022-10-29T12:46:58.725Z,9.40
2022-10-29T12:49:32.705Z,9.57
2022-10-29T12:52:03.755Z,8.03
2022-10-29T12:54:37.601Z,10.40
2022-10-29T12:57:06.517Z,8.47
2022-10-29T12:59:36.728Z,8.63
2022-10-29T13:02:23.650Z,7.60
2022-10-29T13:05:10.330Z,9.50
2022-10-29T13:07:38.644Z,8.20
2022-10-29T13:10:31.012Z,8.83
2022-10-29T13:13:03.134Z,8.80
2022-10-29T13:15:33.594Z,9.03
2022-10-29T13:18:05.938Z,9.77
2022-10-29T13:20:35.704Z,9.13
2022-10-29T13:23:06.600Z,14.40
2022-10-29T13:25:48.790Z,10.60
2022-10-29T13:28:34.925Z,10.17
2022-10-29T13:31:17.980Z,10.17
2022-10-29T13:33:52.909Z,9.70
2022-10-29T13:36:37.605Z,9.10
2022-10-29T13:39:17.336Z,9.60
2022-10-29T13:41:50.396Z,9.20
2022-10-29T13:44:20.553Z,9.63
2022-10-29T13:46:51.394Z,9.37
2022-10-29T13:49:22.237Z,9.63
2022-10-29T13:51:52.686Z,8.93
2022-10-29T13:54:24.002Z,9.50
2022-10-29T13:56:54.409Z,9.43
2022-10-29T13:59:26.230Z,9.20
2022-10-29T14:02:00.621Z,9.57
2022-10-29T14:04:31.538Z,10.20
2022-10-29T14:07:01.150Z,11.10
2022-10-29T14:09:34.114Z,9.60
2022-10-29T14:12:03.645Z,10.37
2022-10-29T14:14:33.973Z,8.93
2022-10-29T14:17:11.764Z,9.50
2022-10-29T14:19:43.775Z,9.30
2022-10-29T14:22:33.639Z,9.90
2022-10-29T14:25:02.078Z,11.00
2022-10-29T14:27:30.309Z,11.87
2022-10-29T14:30:14.520Z,10.53
2022-10-29T14:32:42.433Z,11.17
2022-10-29T14:35:15.632Z,10.97
2022-10-29T14:37:43.957Z,11.63
2022-10-29T14:40:17.288Z,11.30
2022-10-29T14:42:45.966Z,11.47
2022-10-29T14:45:18.385Z,10.90
2022-10-29T14:47:49.833Z,11.50
2022-10-29T14:50:21.397Z,10.77
2022-10-29T14:52:53.543Z,11.77
2022-10-29T14:55:23.211Z,12.93
2022-10-29T14:57:53.704Z,17.90
2022-10-29T15:00:25.382Z,12.93
2022-10-29T15:02:54.196Z,12.10
2022-10-29T15:05:25.427Z,12.10
2022-10-29T15:07:53.372Z,12.83
2022-10-29T15:10:22.594Z,11.70
2022-10-29T15:12:50.648Z,16.57
2022-10-29T15:15:25.807Z,13.13
2022-10-29T15:17:55.410Z,12.10
2022-10-29T15:20:25.565Z,15.57
2022-10-29T15:22:54.201Z,13.80
2022-10-29T15:25:24.513Z,12.70
2022-10-29T15:27:53.181Z,12.90
2022-10-29T15:30:21.545Z,12.57
2022-10-29T15:32:50.040Z,11.90
2022-10-29T15:35:21.696Z,11.37
2022-10-29T15:37:51.849Z,11.87
2022-10-29T15:40:20.227Z,12.00
2022-10-29T15:42:48.324Z,11.50
2022-10-29T15:45:20.986Z,13.27
2022-10-29T15:47:50.535Z,12.93
2022-10-29T15:50:19.380Z,13.80
2022-10-29T15:52:49.265Z,13.83
2022-10-29T15:55:26.219Z,15.87
2022-10-29T15:57:55.685Z,14.03
2022-10-29T16:00:24.528Z,13.60
2022-10-29T16:02:52.247Z,13.60
2022-10-29T16:05:19.837Z,13.23
2022-10-29T16:07:48.673Z,12.30
2022-10-29T16:10:19.554Z,13.17
2022-10-29T16:12:47.818Z,13.20
2022-10-29T16:15:16.579Z,13.97
2022-10-29T16:17:44.117Z,13.10
2022-10-29T16:20:15.932Z,14.70
2022-10-29T16:22:43.825Z,14.10
2022-10-29T16:25:21.699Z,15.00
2022-10-29T16:27:49.562Z,16.70
2022-10-29T16:30:17.403Z,17.77
2022-10-29T16:32:45.335Z,14.93
2022-10-29T16:35:17.282Z,16.20
2022-10-29T16:37:45.078Z,15.00
2022-10-29T16:40:12.943Z,15.77
2022-10-29T16:42:42.295Z,16.87
2022-10-29T16:45:11.969Z,16.50
2022-10-29T16:47:39.905Z,15.87
2022-10-29T16:50:07.969Z,16.00
2022-10-29T16:52:35.958Z,15.73
2022-10-29T16:55:03.479Z,15.97
2022-10-29T16:57:31.289Z,15.87
2022-10-29T17:00:00.393Z,17.70
2022-10-29T17:02:27.997Z,18.33
2022-10-29T17:04:55.559Z,18.43
2022-10-29T17:07:23.041Z,17.53
2022-10-29T17:09:50.469Z,16.70
2022-10-29T17:12:18.392Z,16.57
2022-10-29T17:14:45.957Z,16.83
2022-10-29T17:17:14.960Z,16.30
2022-10-29T17:19:42.628Z,17.07
2022-10-29T17:22:14.201Z,18.60
2022-10-29T17:24:42.015Z,19.40
2022-10-29T17:27:09.987Z,16.77
2022-10-29T17:29:38.258Z,17.20
2022-10-29T17:32:06.330Z,17.70
2022-10-29T17:34:35.744Z,18.60
2022-10-29T17:37:03.290Z,20.60
2022-10-29T17:39:30.846Z,18.70
2022-10-29T17:41:58.785Z,18.97
2022-10-29T17:44:27.445Z,20.20
2022-10-29T17:46:55.366Z,19.43
2022-10-29T17:49:23.152Z,19.93
2022-10-29T17:51:52.104Z,19.30
2022-10-29T17:54:21.250Z,17.77
2022-10-29T17:56:50.735Z,18.80
2022-10-29T17:59:18.211Z,20.30
2022-10-29T18:01:46.015Z,18.10
2022-10-29T18:04:13.729Z,19.23
2022-10-29T18:06:41.364Z,18.70
2022-10-29T18:09:11.319Z,22.33
2022-10-29T18:11:39.139Z,20.83
2022-10-29T18:14:06.681Z,20.43
2022-10-29T18:16:34.245Z,20.90
2022-10-29T18:19:03.762Z,18.43
2022-10-29T18:21:31.895Z,21.20
2022-10-29T18:23:59.546Z,20.10
2022-10-29T18:26:30.784Z,22.37
2022-10-29T18:29:17.096Z,24.77
2022-10-29T18:31:46.750Z,20.33
2022-10-29T18:34:15.395Z,21.47
2022-10-29T18:36:43.118Z,24.73
2022-10-29T18:39:10.828Z,29.27
2022-10-29T18:41:40.490Z,26.87
2022-10-29T18:44:08.115Z,23.77
2022-10-29T18:46:35.693Z,25.90
2022-10-29T18:49:03.394Z,22.90
2022-10-29T18:51:31.903Z,23.00
2022-10-29T18:54:00.048Z,23.53
2022-10-29T18:56:28.763Z,52.97
2022-10-29T18:58:58.667Z,27.63
2022-10-29T19:01:27.681Z,24.57
2022-10-29T19:03:56.247Z,24.60
2022-10-29T19:06:24.684Z,30.70
2022-10-29T19:08:52.337Z,25.13
2022-10-29T19:11:20.913Z,25.93
2022-10-29T19:13:50.568Z,26.70
2022-10-29T19:16:20.743Z,26.83
2022-10-29T19:18:48.288Z,25.97
2022-10-29T19:21:16.556Z,26.93
2022-10-29T19:23:46.255Z,25.27
2022-10-29T19:26:14.410Z,28.17
2022-10-29T19:28:42.092Z,25.77
2022-10-29T19:31:10.599Z,26.13
2022-10-29T19:33:39.942Z,24.83
2022-10-29T19:36:09.273Z,25.73
2022-10-29T19:38:37.196Z,25.10
2022-10-29T19:41:04.928Z,24.80
2022-10-29T19:43:32.522Z,24.57
2022-10-29T19:46:00.792Z,26.90
2022-10-29T19:48:28.301Z,27.27
2022-10-29T19:50:57.918Z,27.40
2022-10-29T19:53:26.720Z,27.67
2022-10-29T19:55:54.534Z,27.70
2022-10-29T19:58:23.241Z,26.97
2022-10-29T20:00:51.361Z,25.77
2022-10-29T20:03:19.204Z,26.50
2022-10-29T20:05:47.660Z,27.13
2022-10-29T20:08:16.803Z,26.33
2022-10-29T20:10:44.581Z,26.17
2022-10-29T20:13:12.070Z,27.23
2022-10-29T20:15:40.306Z,31.33
2022-10-29T20:18:07.846Z,32.97
2022-10-29T20:20:35.541Z,32.37
2022-10-29T20:23:03.283Z,26.43
2022-10-29T20:25:32.268Z,26.27
2022-10-29T20:28:01.700Z,27.47
2022-10-29T20:30:29.949Z,27.10
2022-10-29T20:32:57.974Z,27.30
2022-10-29T20:35:25.815Z,26.53
2022-10-29T20:37:53.352Z,30.37
2022-10-29T20:40:21.022Z,29.90
2022-10-29T20:42:51.640Z,31.57
2022-10-29T20:45:19.547Z,27.77
2022-10-29T20:47:47.516Z,27.73
2022-10-29T20:50:15.312Z,28.33
2022-10-29T20:52:48.155Z,28.23
2022-10-29T20:55:16.400Z,26.80
2022-10-29T20:57:44.349Z,28.27
2022-10-29T21:00:13.770Z,26.50
2022-10-29T21:02:44.107Z,27.60
2022-10-29T21:05:11.917Z,29.67
2022-10-29T21:07:39.742Z,28.33
2022-10-29T21:10:07.978Z,28.50
2022-10-29T21:12:35.785Z,28.50
2022-10-29T21:15:03.352Z,28.33
2022-10-29T21:17:33.705Z,30.23
2022-10-29T21:20:01.970Z,29.00
2022-10-29T21:22:29.545Z,28.10
2022-10-29T21:24:57.468Z,30.40
2022-10-29T21:27:25.238Z,30.13
2022-10-29T21:29:52.779Z,30.10
2022-10-29T21:32:20.304Z,32.40
2022-10-29T21:34:49.447Z,29.57
2022-10-29T21:37:16.983Z,31.07
2022-10-29T21:39:44.784Z,30.40
2022-10-29T21:42:12.464Z,31.20
2022-10-29T21:44:39.974Z,30.33
2022-10-29T21:47:07.449Z,31.20
2022-10-29T21:49:35.601Z,30.40
2022-10-29T21:52:04.881Z,32.17
2022-10-29T21:54:32.448Z,30.10
2022-10-29T21:57:01.232Z,31.07
2022-10-29T21:59:28.741Z,30.50
2022-10-29T22:01:56.596Z,30.73
2022-10-29T22:04:24.731Z,29.90
2022-10-29T22:06:52.221Z,30.23
2022-10-29T22:09:21.084Z,28.70
2022-10-29T22:11:48.851Z,28.20
2022-10-29T22:14:16.539Z,28.27
2022-10-29T22:16:44.039Z,28.93
2022-10-29T22:19:11.862Z,28.73
2022-10-29T22:21:39.429Z,29.43
2022-10-29T22:24:07.057Z,27.77
2022-10-29T22:26:36.141Z,27.73
2022-10-29T22:29:03.707Z,27.50
2022-10-29T22:31:31.239Z,27.53
2022-10-29T22:33:59.339Z,27.60
2022-10-29T22:36:28.118Z,27.53
2022-10-29T22:38:56.578Z,27.87
2022-10-29T22:41:25.999Z,26.20
2022-10-29T22:43:55.767Z,26.73
2022-10-29T22:46:23.518Z,28.07
2022-10-29T22:48:51.695Z,25.83
2022-10-29T22:51:21.462Z,27.10
2022-10-29T22:53:49.427Z,25.63
2022-10-29T22:56:18.171Z,27.67
2022-10-29T22:58:46.182Z,25.70
2022-10-29T23:01:16.167Z,25.90
2022-10-29T23:03:44.228Z,25.63
2022-10-29T23:06:12.643Z,25.37
2022-10-29T23:08:40.232Z,24.90
2022-10-29T23:11:08.864Z,27.00
2022-10-29T23:13:38.078Z,26.17
2022-10-29T23:16:06.055Z,26.70
2022-10-29T23:18:35.699Z,27.97
2022-10-29T23:21:03.944Z,27.23
2022-10-29T23:23:32.297Z,27.70
2022-10-29T23:26:02.346Z,27.50
2022-10-29T23:28:30.900Z,28.80
2022-10-29T23:30:59.768Z,29.50
2022-10-29T23:33:27.620Z,28.93
2022-10-29T23:35:56.524Z,29.30
2022-10-29T23:38:24.625Z,30.77
2022-10-29T23:40:52.152Z,29.43
2022-10-29T23:43:20.052Z,29.50
2022-10-29T23:45:47.825Z,30.63
2022-10-29T23:48:15.409Z,30.03
2022-10-29T23:50:43.292Z,28.73
2022-10-29T23:53:12.761Z,29.83
2022-10-29T23:55:40.224Z,29.00
2022-10-29T23:58:07.992Z,30.27
